sensor_id;sensor_type;location;lat;lon;timestamp;temperature;humidity
56725;DHT22;42608;52.776;6.968;2024-03-23T00:53:24;7.40;99.90
56725;DHT22;42608;52.776;6.968;2024-03-23T00:55:50;7.40;99.90
56725;DHT22;42608;52.776;6.968;2024-03-23T00:58:15;7.40;99.90
56725;DHT22;42608;52.776;6.968;2024-03-23T01:00:41;7.40;99.90
56725;DHT22;42608;52.776;6.968;2024-03-23T01:03:07;7.30;99.90
56725;DHT22;42608;52.776;6.968;2024-03-23T01:05:32;7.30;99.90
56725;DHT22;42608;52.776;6.968;2024-03-23T01:07:58;7.30;99.90
56725;DHT22;42608;52.776;6.968;2024-03-23T01:10:23;7.30;99.90
56725;DHT22;42608;52.776;6.968;2024-03-23T01:12:49;7.30;99.90
56725;DHT22;42608;52.776;6.968;2024-03-23T01:15:15;7.30;99.90
56725;DHT22;42608;52.776;6.968;2024-03-23T01:17:40;7.20;99.90
56725;DHT22;42608;52.776;6.968;2024-03-23T01:20:06;7.20;99.90
56725;DHT22;42608;52.776;6.968;2024-03-23T01:22:32;7.20;99.90
56725;DHT22;42608;52.776;6.968;2024-03-23T01:24:58;7.20;99.90
56725;DHT22;42608;52.776;6.968;2024-03-23T01:27:24;7.20;99.90
56725;DHT22;42608;52.776;6.968;2024-03-23T01:29:49;7.20;99.90
56725;DHT22;42608;52.776;6.968;2024-03-23T01:32:16;7.20;99.90
56725;DHT22;42608;52.776;6.968;2024-03-23T01:34:41;7.20;99.90
56725;DHT22;42608;52.776;6.968;2024-03-23T01:37:07;7.20;99.90
56725;DHT22;42608;52.776;6.968;2024-03-23T01:39:32;7.10;99.90
56725;DHT22;42608;52.776;6.968;2024-03-23T01:42:01;7.20;99.90
56725;DHT22;42608;52.776;6.968;2024-03-23T01:44:27;7.20;99.90
56725;DHT22;42608;52.776;6.968;2024-03-23T01:46:55;7.20;99.90
56725;DHT22;42608;52.776;6.968;2024-03-23T01:49:21;7.10;99.90
56725;DHT22;42608;52.776;6.968;2024-03-23T01:51:46;7.10;99.90
56725;DHT22;42608;52.776;6.968;2024-03-23T01:54:12;7.10;99.90
56725;DHT22;42608;52.776;6.968;2024-03-23T01:56:37;7.10;99.90
56725;DHT22;42608;52.776;6.968;2024-03-23T01:59:03;7.10;99.90
56725;DHT22;42608;52.776;6.968;2024-03-23T02:01:29;7.00;99.90
56725;DHT22;42608;52.776;6.968;2024-03-23T02:03:55;7.00;99.90
56725;DHT22;42608;52.776;6.968;2024-03-23T02:06:21;7.00;99.90
56725;DHT22;42608;52.776;6.968;2024-03-23T02:08:47;7.00;99.90
56725;DHT22;42608;52.776;6.968;2024-03-23T02:11:13;7.00;99.90
56725;DHT22;42608;52.776;6.968;2024-03-23T02:13:39;7.00;99.90
56725;DHT22;42608;52.776;6.968;2024-03-23T02:16:08;7.00;99.90
56725;DHT22;42608;52.776;6.968;2024-03-23T02:18:34;7.00;99.90
56725;DHT22;42608;52.776;6.968;2024-03-23T02:20:59;6.90;99.90
56725;DHT22;42608;52.776;6.968;2024-03-23T02:23:27;6.90;99.90
56725;DHT22;42608;52.776;6.968;2024-03-23T02:25:53;6.90;99.90
56725;DHT22;42608;52.776;6.968;2024-03-23T02:28:19;6.90;99.90
56725;DHT22;42608;52.776;6.968;2024-03-23T02:30:45;6.80;99.90
56725;DHT22;42608;52.776;6.968;2024-03-23T02:33:10;6.90;99.90
56725;DHT22;42608;52.776;6.968;2024-03-23T02:35:36;6.80;99.90
56725;DHT22;42608;52.776;6.968;2024-03-23T02:38:01;6.80;99.90
56725;DHT22;42608;52.776;6.968;2024-03-23T02:40:28;6.80;99.90
56725;DHT22;42608;52.776;6.968;2024-03-23T02:42:53;6.80;99.90
56725;DHT22;42608;52.776;6.968;2024-03-23T02:45:19;6.70;99.90
56725;DHT22;42608;52.776;6.968;2024-03-23T02:47:44;6.70;99.90
56725;DHT22;42608;52.776;6.968;2024-03-23T02:50:10;6.70;99.90
56725;DHT22;42608;52.776;6.968;2024-03-23T02:52:36;6.70;99.90
56725;DHT22;42608;52.776;6.968;2024-03-23T02:55:02;6.70;99.90
56725;DHT22;42608;52.776;6.968;2024-03-23T02:57:32;6.70;99.90
56725;DHT22;42608;52.776;6.968;2024-03-23T02:59:58;6.70;99.90
56725;DHT22;42608;52.776;6.968;2024-03-23T03:02:23;6.60;99.90
56725;DHT22;42608;52.776;6.968;2024-03-23T03:04:49;6.60;99.90
56725;DHT22;42608;52.776;6.968;2024-03-23T03:07:17;6.50;99.90
56725;DHT22;42608;52.776;6.968;2024-03-23T03:09:42;6.50;99.90
56725;DHT22;42608;52.776;6.968;2024-03-23T03:12:08;6.50;99.90
56725;DHT22;42608;52.776;6.968;2024-03-23T03:14:34;6.50;99.90
56725;DHT22;42608;52.776;6.968;2024-03-23T03:17:02;6.40;99.90
56725;DHT22;42608;52.776;6.968;2024-03-23T03:19:28;6.40;99.90
56725;DHT22;42608;52.776;6.968;2024-03-23T03:21:53;6.30;99.90
56725;DHT22;42608;52.776;6.968;2024-03-23T03:24:22;6.30;99.90
56725;DHT22;42608;52.776;6.968;2024-03-23T03:26:47;6.30;99.90
56725;DHT22;42608;52.776;6.968;2024-03-23T03:29:15;6.20;99.90
56725;DHT22;42608;52.776;6.968;2024-03-23T03:31:40;6.20;99.90
56725;DHT22;42608;52.776;6.968;2024-03-23T03:34:06;6.20;99.90
56725;DHT22;42608;52.776;6.968;2024-03-23T03:36:31;6.10;99.90
56725;DHT22;42608;52.776;6.968;2024-03-23T03:38:57;6.10;99.90
56725;DHT22;42608;52.776;6.968;2024-03-23T03:41:22;6.10;99.90
56725;DHT22;42608;52.776;6.968;2024-03-23T03:43:51;6.10;99.90
56725;DHT22;42608;52.776;6.968;2024-03-23T03:46:17;6.00;99.90
56725;DHT22;42608;52.776;6.968;2024-03-23T03:48:45;6.10;99.90
56725;DHT22;42608;52.776;6.968;2024-03-23T03:51:13;6.00;99.90
56725;DHT22;42608;52.776;6.968;2024-03-23T03:53:38;6.00;99.90
56725;DHT22;42608;52.776;6.968;2024-03-23T03:56:04;6.00;99.90
56725;DHT22;42608;52.776;6.968;2024-03-23T03:58:29;6.00;99.90
56725;DHT22;42608;52.776;6.968;2024-03-23T04:00:55;5.90;99.90
56725;DHT22;42608;52.776;6.968;2024-03-23T04:03:20;5.90;99.90
56725;DHT22;42608;52.776;6.968;2024-03-23T04:05:52;5.90;99.90
56725;DHT22;42608;52.776;6.968;2024-03-23T04:08:18;5.80;99.90
56725;DHT22;42608;52.776;6.968;2024-03-23T04:10:47;5.80;99.90
56725;DHT22;42608;52.776;6.968;2024-03-23T04:13:13;5.80;99.90
56725;DHT22;42608;52.776;6.968;2024-03-23T04:15:38;5.80;99.90
56725;DHT22;42608;52.776;6.968;2024-03-23T04:18:04;5.80;99.90
56725;DHT22;42608;52.776;6.968;2024-03-23T04:20:30;5.80;99.90
56725;DHT22;42608;52.776;6.968;2024-03-23T04:22:55;5.70;99.90
56725;DHT22;42608;52.776;6.968;2024-03-23T04:25:21;5.70;99.90
56725;DHT22;42608;52.776;6.968;2024-03-23T04:27:47;5.70;99.90
56725;DHT22;42608;52.776;6.968;2024-03-23T04:30:12;5.70;99.90
56725;DHT22;42608;52.776;6.968;2024-03-23T04:32:38;5.70;99.90
56725;DHT22;42608;52.776;6.968;2024-03-23T04:35:04;5.70;99.90
56725;DHT22;42608;52.776;6.968;2024-03-23T04:37:37;5.70;99.90
56725;DHT22;42608;52.776;6.968;2024-03-23T04:40:03;5.60;99.90
56725;DHT22;42608;52.776;6.968;2024-03-23T04:42:32;5.60;99.90
56725;DHT22;42608;52.776;6.968;2024-03-23T04:44:58;5.60;99.90
56725;DHT22;42608;52.776;6.968;2024-03-23T04:47:23;5.60;99.90
56725;DHT22;42608;52.776;6.968;2024-03-23T04:49:49;5.50;99.90
56725;DHT22;42608;52.776;6.968;2024-03-23T04:52:15;5.50;99.90
56725;DHT22;42608;52.776;6.968;2024-03-23T04:54:41;5.50;99.90
56725;DHT22;42608;52.776;6.968;2024-03-23T04:57:07;5.50;99.90
56725;DHT22;42608;52.776;6.968;2024-03-23T04:59:32;5.40;99.90
56725;DHT22;42608;52.776;6.968;2024-03-23T05:01:58;5.40;99.90
56725;DHT22;42608;52.776;6.968;2024-03-23T05:04:25;5.40;99.90
56725;DHT22;42608;52.776;6.968;2024-03-23T05:06:50;5.40;99.90
56725;DHT22;42608;52.776;6.968;2024-03-23T05:09:19;5.40;99.90
56725;DHT22;42608;52.776;6.968;2024-03-23T05:11:48;5.30;99.90
56725;DHT22;42608;52.776;6.968;2024-03-23T05:14:13;5.30;99.90
56725;DHT22;42608;52.776;6.968;2024-03-23T05:16:42;5.30;99.90
56725;DHT22;42608;52.776;6.968;2024-03-23T05:19:07;5.20;99.90
56725;DHT22;42608;52.776;6.968;2024-03-23T05:21:33;5.20;99.90
56725;DHT22;42608;52.776;6.968;2024-03-23T05:23:58;5.20;99.90
56725;DHT22;42608;52.776;6.968;2024-03-23T05:26:24;5.20;99.90
56725;DHT22;42608;52.776;6.968;2024-03-23T05:28:50;5.20;99.90
56725;DHT22;42608;52.776;6.968;2024-03-23T05:31:23;5.20;99.90
56725;DHT22;42608;52.776;6.968;2024-03-23T05:33:48;5.10;99.90
56725;DHT22;42608;52.776;6.968;2024-03-23T05:36:14;5.10;99.90
56725;DHT22;42608;52.776;6.968;2024-03-23T05:38:39;5.10;99.90
56725;DHT22;42608;52.776;6.968;2024-03-23T05:41:08;5.10;99.90
56725;DHT22;42608;52.776;6.968;2024-03-23T05:43:33;5.10;99.90
56725;DHT22;42608;52.776;6.968;2024-03-23T05:45:59;5.10;99.90
56725;DHT22;42608;52.776;6.968;2024-03-23T05:48:25;5.10;99.90
56725;DHT22;42608;52.776;6.968;2024-03-23T05:50:52;5.10;99.90
56725;DHT22;42608;52.776;6.968;2024-03-23T05:53:18;5.10;99.90
56725;DHT22;42608;52.776;6.968;2024-03-23T05:55:43;5.10;99.90
56725;DHT22;42608;52.776;6.968;2024-03-23T05:58:09;5.10;99.90
56725;DHT22;42608;52.776;6.968;2024-03-23T06:00:35;5.00;99.90
56725;DHT22;42608;52.776;6.968;2024-03-23T06:03:01;5.00;99.90
56725;DHT22;42608;52.776;6.968;2024-03-23T06:05:26;5.00;99.90
56725;DHT22;42608;52.776;6.968;2024-03-23T06:07:52;5.00;99.90
56725;DHT22;42608;52.776;6.968;2024-03-23T06:10:18;5.00;99.90
56725;DHT22;42608;52.776;6.968;2024-03-23T06:12:45;5.00;99.90
56725;DHT22;42608;52.776;6.968;2024-03-23T06:15:11;5.00;99.90
56725;DHT22;42608;52.776;6.968;2024-03-23T06:17:39;5.00;99.90
56725;DHT22;42608;52.776;6.968;2024-03-23T06:20:05;5.10;99.90
56725;DHT22;42608;52.776;6.968;2024-03-23T06:22:38;5.10;99.90
56725;DHT22;42608;52.776;6.968;2024-03-23T06:25:03;5.10;99.90
56725;DHT22;42608;52.776;6.968;2024-03-23T06:27:29;5.10;99.90
56725;DHT22;42608;52.776;6.968;2024-03-23T06:29:54;5.20;99.90
56725;DHT22;42608;52.776;6.968;2024-03-23T06:32:20;5.20;99.90
56725;DHT22;42608;52.776;6.968;2024-03-23T06:34:46;5.20;99.90
56725;DHT22;42608;52.776;6.968;2024-03-23T06:37:13;5.20;99.90
56725;DHT22;42608;52.776;6.968;2024-03-23T06:39:38;5.20;99.90
56725;DHT22;42608;52.776;6.968;2024-03-23T06:42:04;5.20;99.90
56725;DHT22;42608;52.776;6.968;2024-03-23T06:44:30;5.30;99.90
56725;DHT22;42608;52.776;6.968;2024-03-23T06:46:58;5.30;99.90
56725;DHT22;42608;52.776;6.968;2024-03-23T06:49:24;5.30;99.90
56725;DHT22;42608;52.776;6.968;2024-03-23T06:51:49;5.40;99.90
56725;DHT22;42608;52.776;6.968;2024-03-23T06:54:19;5.40;99.90
56725;DHT22;42608;52.776;6.968;2024-03-23T06:56:45;5.50;99.90
56725;DHT22;42608;52.776;6.968;2024-03-23T06:59:10;5.60;99.90
56725;DHT22;42608;52.776;6.968;2024-03-23T07:01:36;5.60;99.90
56725;DHT22;42608;52.776;6.968;2024-03-23T07:04:01;5.60;99.90
56725;DHT22;42608;52.776;6.968;2024-03-23T07:06:27;5.60;99.90
56725;DHT22;42608;52.776;6.968;2024-03-23T07:08:53;5.70;99.90
56725;DHT22;42608;52.776;6.968;2024-03-23T07:11:19;5.70;99.90
56725;DHT22;42608;52.776;6.968;2024-03-23T07:13:45;5.70;99.90
56725;DHT22;42608;52.776;6.968;2024-03-23T07:16:11;5.70;99.90
56725;DHT22;42608;52.776;6.968;2024-03-23T07:18:36;5.70;99.90
56725;DHT22;42608;52.776;6.968;2024-03-23T07:21:02;5.70;99.90
56725;DHT22;42608;52.776;6.968;2024-03-23T07:23:28;5.80;99.90
56725;DHT22;42608;52.776;6.968;2024-03-23T07:26:01;5.70;99.90
56725;DHT22;42608;52.776;6.968;2024-03-23T07:28:26;5.80;99.90
56725;DHT22;42608;52.776;6.968;2024-03-23T07:31:06;5.70;99.90
56725;DHT22;42608;52.776;6.968;2024-03-23T07:36:18;5.70;99.90
56725;DHT22;42608;52.776;6.968;2024-03-23T07:38:43;5.80;99.90
56725;DHT22;42608;52.776;6.968;2024-03-23T07:41:14;5.80;99.90
56725;DHT22;42608;52.776;6.968;2024-03-23T07:43:40;5.80;99.90
56725;DHT22;42608;52.776;6.968;2024-03-23T07:46:06;5.90;99.90
56725;DHT22;42608;52.776;6.968;2024-03-23T07:48:32;5.90;99.90
56725;DHT22;42608;52.776;6.968;2024-03-23T07:50:58;6.00;99.90
56725;DHT22;42608;52.776;6.968;2024-03-23T07:53:24;6.00;99.90
56725;DHT22;42608;52.776;6.968;2024-03-23T07:55:56;6.00;99.90
56725;DHT22;42608;52.776;6.968;2024-03-23T07:58:22;6.00;99.90
56725;DHT22;42608;52.776;6.968;2024-03-23T08:00:47;6.10;99.90
56725;DHT22;42608;52.776;6.968;2024-03-23T08:03:13;6.00;99.90
56725;DHT22;42608;52.776;6.968;2024-03-23T08:05:41;6.20;99.90
56725;DHT22;42608;52.776;6.968;2024-03-23T08:08:07;6.20;99.90
56725;DHT22;42608;52.776;6.968;2024-03-23T08:10:33;6.30;99.90
56725;DHT22;42608;52.776;6.968;2024-03-23T08:12:58;6.40;99.90
56725;DHT22;42608;52.776;6.968;2024-03-23T08:15:24;6.50;99.90
56725;DHT22;42608;52.776;6.968;2024-03-23T08:17:49;6.50;99.90
56725;DHT22;42608;52.776;6.968;2024-03-23T08:20:24;6.60;99.90
56725;DHT22;42608;52.776;6.968;2024-03-23T08:22:50;6.50;99.90
56725;DHT22;42608;52.776;6.968;2024-03-23T08:25:18;6.50;99.90
56725;DHT22;42608;52.776;6.968;2024-03-23T08:27:44;6.40;99.90
56725;DHT22;42608;52.776;6.968;2024-03-23T08:30:10;6.30;99.90
56725;DHT22;42608;52.776;6.968;2024-03-23T08:32:36;6.20;99.90
56725;DHT22;42608;52.776;6.968;2024-03-23T08:35:04;6.20;99.90
56725;DHT22;42608;52.776;6.968;2024-03-23T08:37:30;6.10;99.90
56725;DHT22;42608;52.776;6.968;2024-03-23T08:39:55;6.10;99.90
56725;DHT22;42608;52.776;6.968;2024-03-23T08:42:21;6.00;99.90
56725;DHT22;42608;52.776;6.968;2024-03-23T08:44:49;6.00;99.90
56725;DHT22;42608;52.776;6.968;2024-03-23T08:47:15;6.10;99.90
56725;DHT22;42608;52.776;6.968;2024-03-23T08:49:41;6.10;99.90
56725;DHT22;42608;52.776;6.968;2024-03-23T08:52:07;6.10;99.90
56725;DHT22;42608;52.776;6.968;2024-03-23T08:54:32;6.10;99.90
56725;DHT22;42608;52.776;6.968;2024-03-23T08:56:59;6.10;99.90
56725;DHT22;42608;52.776;6.968;2024-03-23T08:59:24;6.10;99.90
56725;DHT22;42608;52.776;6.968;2024-03-23T09:01:53;6.10;99.90
56725;DHT22;42608;52.776;6.968;2024-03-23T09:04:18;6.20;99.90
56725;DHT22;42608;52.776;6.968;2024-03-23T09:06:44;6.20;99.90
56725;DHT22;42608;52.776;6.968;2024-03-23T09:09:09;6.20;99.90
56725;DHT22;42608;52.776;6.968;2024-03-23T09:11:35;6.30;99.90
56725;DHT22;42608;52.776;6.968;2024-03-23T09:14:01;6.30;99.90
56725;DHT22;42608;52.776;6.968;2024-03-23T09:16:26;6.30;99.90
56725;DHT22;42608;52.776;6.968;2024-03-23T09:18:52;6.40;99.90
56725;DHT22;42608;52.776;6.968;2024-03-23T09:21:20;6.40;99.90
56725;DHT22;42608;52.776;6.968;2024-03-23T09:23:49;6.40;99.90
56725;DHT22;42608;52.776;6.968;2024-03-23T09:26:14;6.50;99.90
56725;DHT22;42608;52.776;6.968;2024-03-23T09:28:40;6.50;99.90
56725;DHT22;42608;52.776;6.968;2024-03-23T09:31:06;6.50;99.90
56725;DHT22;42608;52.776;6.968;2024-03-23T09:33:39;6.60;99.90
56725;DHT22;42608;52.776;6.968;2024-03-23T09:36:05;6.70;99.90
56725;DHT22;42608;52.776;6.968;2024-03-23T09:38:31;6.80;99.90
56725;DHT22;42608;52.776;6.968;2024-03-23T09:40:57;6.90;99.90
56725;DHT22;42608;52.776;6.968;2024-03-23T09:43:22;7.00;99.90
56725;DHT22;42608;52.776;6.968;2024-03-23T09:45:48;7.00;99.90
56725;DHT22;42608;52.776;6.968;2024-03-23T09:48:14;7.10;99.90
56725;DHT22;42608;52.776;6.968;2024-03-23T09:50:40;7.20;99.90
56725;DHT22;42608;52.776;6.968;2024-03-23T09:53:09;7.20;99.90
56725;DHT22;42608;52.776;6.968;2024-03-23T09:55:35;7.20;99.90
56725;DHT22;42608;52.776;6.968;2024-03-23T09:58:02;7.30;99.90
56725;DHT22;42608;52.776;6.968;2024-03-23T10:00:27;7.40;99.90
56725;DHT22;42608;52.776;6.968;2024-03-23T10:02:57;7.50;99.90
56725;DHT22;42608;52.776;6.968;2024-03-23T10:05:29;7.60;99.90
56725;DHT22;42608;52.776;6.968;2024-03-23T10:07:57;7.70;99.90
56725;DHT22;42608;52.776;6.968;2024-03-23T10:10:24;7.70;99.90
56725;DHT22;42608;52.776;6.968;2024-03-23T10:12:50;7.80;99.90
56725;DHT22;42608;52.776;6.968;2024-03-23T10:15:19;7.80;99.90
56725;DHT22;42608;52.776;6.968;2024-03-23T10:17:45;7.90;99.90
56725;DHT22;42608;52.776;6.968;2024-03-23T10:20:11;8.00;99.90
56725;DHT22;42608;52.776;6.968;2024-03-23T10:22:42;8.00;99.90
56725;DHT22;42608;52.776;6.968;2024-03-23T10:25:10;8.00;99.90
56725;DHT22;42608;52.776;6.968;2024-03-23T10:27:35;8.10;99.90
56725;DHT22;42608;52.776;6.968;2024-03-23T10:30:08;8.10;99.90
56725;DHT22;42608;52.776;6.968;2024-03-23T10:32:37;8.10;99.90
56725;DHT22;42608;52.776;6.968;2024-03-23T10:35:16;8.10;99.90
56725;DHT22;42608;52.776;6.968;2024-03-23T10:37:42;8.20;99.90
56725;DHT22;42608;52.776;6.968;2024-03-23T10:40:09;8.20;99.90
56725;DHT22;42608;52.776;6.968;2024-03-23T10:42:35;8.10;99.90
56725;DHT22;42608;52.776;6.968;2024-03-23T10:45:01;8.00;99.90
56725;DHT22;42608;52.776;6.968;2024-03-23T10:47:29;8.00;99.90
56725;DHT22;42608;52.776;6.968;2024-03-23T10:49:54;8.00;99.90
56725;DHT22;42608;52.776;6.968;2024-03-23T10:52:20;8.00;99.90
56725;DHT22;42608;52.776;6.968;2024-03-23T10:54:45;8.00;99.90
56725;DHT22;42608;52.776;6.968;2024-03-23T10:57:14;8.10;99.90
56725;DHT22;42608;52.776;6.968;2024-03-23T10:59:41;8.10;99.90
56725;DHT22;42608;52.776;6.968;2024-03-23T11:02:06;8.20;99.90
56725;DHT22;42608;52.776;6.968;2024-03-23T11:04:36;8.20;99.90
56725;DHT22;42608;52.776;6.968;2024-03-23T11:07:28;8.30;99.90
56725;DHT22;42608;52.776;6.968;2024-03-23T11:09:52;8.40;99.90
56725;DHT22;42608;52.776;6.968;2024-03-23T11:14:57;8.50;99.90
56725;DHT22;42608;52.776;6.968;2024-03-23T11:17:24;8.50;99.90
56725;DHT22;42608;52.776;6.968;2024-03-23T11:19:53;8.50;99.90
56725;DHT22;42608;52.776;6.968;2024-03-23T11:25:01;8.50;99.90
56725;DHT22;42608;52.776;6.968;2024-03-23T11:27:26;8.50;99.90
56725;DHT22;42608;52.776;6.968;2024-03-23T11:29:52;8.50;99.90
56725;DHT22;42608;52.776;6.968;2024-03-23T11:32:20;8.50;99.90
56725;DHT22;42608;52.776;6.968;2024-03-23T11:34:46;8.50;99.90
56725;DHT22;42608;52.776;6.968;2024-03-23T11:37:11;8.40;99.90
56725;DHT22;42608;52.776;6.968;2024-03-23T11:39:40;8.40;99.90
56725;DHT22;42608;52.776;6.968;2024-03-23T11:42:06;8.30;99.90
56725;DHT22;42608;52.776;6.968;2024-03-23T11:44:31;8.10;99.90
56725;DHT22;42608;52.776;6.968;2024-03-23T11:47:07;7.80;99.90
56725;DHT22;42608;52.776;6.968;2024-03-23T11:49:33;7.20;99.90
56725;DHT22;42608;52.776;6.968;2024-03-23T11:52:06;6.90;99.90
56725;DHT22;42608;52.776;6.968;2024-03-23T11:54:31;6.60;99.90
56725;DHT22;42608;52.776;6.968;2024-03-23T11:56:57;6.40;99.90
56725;DHT22;42608;52.776;6.968;2024-03-23T11:59:30;6.30;99.90
56725;DHT22;42608;52.776;6.968;2024-03-23T12:01:55;6.20;99.90
56725;DHT22;42608;52.776;6.968;2024-03-23T12:04:28;6.10;99.90
56725;DHT22;42608;52.776;6.968;2024-03-23T12:09:38;5.90;99.90
56725;DHT22;42608;52.776;6.968;2024-03-23T12:14:39;5.90;99.90
56725;DHT22;42608;52.776;6.968;2024-03-23T12:17:08;6.00;99.90
56725;DHT22;42608;52.776;6.968;2024-03-23T12:19:37;6.00;99.90
56725;DHT22;42608;52.776;6.968;2024-03-23T12:22:03;6.00;99.90
56725;DHT22;42608;52.776;6.968;2024-03-23T12:24:29;6.10;99.90
56725;DHT22;42608;52.776;6.968;2024-03-23T12:26:55;6.10;99.90
56725;DHT22;42608;52.776;6.968;2024-03-23T12:29:20;6.10;99.90
56725;DHT22;42608;52.776;6.968;2024-03-23T12:31:46;6.10;99.90
56725;DHT22;42608;52.776;6.968;2024-03-23T12:34:11;5.90;99.90
56725;DHT22;42608;52.776;6.968;2024-03-23T12:36:38;5.80;99.90
56725;DHT22;42608;52.776;6.968;2024-03-23T12:39:04;5.80;99.90
56725;DHT22;42608;52.776;6.968;2024-03-23T12:41:30;5.80;99.90
56725;DHT22;42608;52.776;6.968;2024-03-23T12:43:55;5.80;99.90
56725;DHT22;42608;52.776;6.968;2024-03-23T12:46:23;5.80;99.90
56725;DHT22;42608;52.776;6.968;2024-03-23T12:48:49;5.80;99.90
56725;DHT22;42608;52.776;6.968;2024-03-23T12:51:18;5.90;99.90
56725;DHT22;42608;52.776;6.968;2024-03-23T12:53:43;5.90;99.90
56725;DHT22;42608;52.776;6.968;2024-03-23T12:56:12;5.90;99.90
56725;DHT22;42608;52.776;6.968;2024-03-23T12:58:37;6.00;99.90
56725;DHT22;42608;52.776;6.968;2024-03-23T13:01:03;6.00;99.90
56725;DHT22;42608;52.776;6.968;2024-03-23T13:03:28;6.10;99.90
56725;DHT22;42608;52.776;6.968;2024-03-23T13:05:54;6.20;99.90
56725;DHT22;42608;52.776;6.968;2024-03-23T13:08:19;6.20;99.90
56725;DHT22;42608;52.776;6.968;2024-03-23T13:10:45;6.30;99.90
56725;DHT22;42608;52.776;6.968;2024-03-23T13:13:12;6.30;99.90
56725;DHT22;42608;52.776;6.968;2024-03-23T13:15:38;6.40;99.90
56725;DHT22;42608;52.776;6.968;2024-03-23T13:18:03;6.60;99.90
56725;DHT22;42608;52.776;6.968;2024-03-23T13:20:29;6.70;99.90
56725;DHT22;42608;52.776;6.968;2024-03-23T13:22:54;6.80;99.90
56725;DHT22;42608;52.776;6.968;2024-03-23T13:25:20;6.90;99.90
56725;DHT22;42608;52.776;6.968;2024-03-23T13:27:45;7.00;99.90
56725;DHT22;42608;52.776;6.968;2024-03-23T13:30:11;7.20;99.90
56725;DHT22;42608;52.776;6.968;2024-03-23T13:32:39;7.30;99.90
56725;DHT22;42608;52.776;6.968;2024-03-23T13:35:05;7.40;99.90
56725;DHT22;42608;52.776;6.968;2024-03-23T13:37:31;7.50;99.90
56725;DHT22;42608;52.776;6.968;2024-03-23T13:40:03;7.40;99.90
56725;DHT22;42608;52.776;6.968;2024-03-23T13:42:30;7.40;99.90
56725;DHT22;42608;52.776;6.968;2024-03-23T13:44:56;7.30;99.90
56725;DHT22;42608;52.776;6.968;2024-03-23T13:47:21;7.30;99.90
56725;DHT22;42608;52.776;6.968;2024-03-23T13:49:47;7.30;99.90
56725;DHT22;42608;52.776;6.968;2024-03-23T13:52:14;7.30;99.90
56725;DHT22;42608;52.776;6.968;2024-03-23T13:54:39;7.30;99.90
56725;DHT22;42608;52.776;6.968;2024-03-23T13:57:11;7.40;99.90
56725;DHT22;42608;52.776;6.968;2024-03-23T13:59:37;7.50;99.90
56725;DHT22;42608;52.776;6.968;2024-03-23T14:02:02;7.60;99.90
56725;DHT22;42608;52.776;6.968;2024-03-23T14:04:28;7.70;99.90
56725;DHT22;42608;52.776;6.968;2024-03-23T14:06:54;7.80;99.90
56725;DHT22;42608;52.776;6.968;2024-03-23T14:09:19;7.90;99.90
56725;DHT22;42608;52.776;6.968;2024-03-23T14:11:51;8.10;99.90
56725;DHT22;42608;52.776;6.968;2024-03-23T14:14:17;8.20;99.90
56725;DHT22;42608;52.776;6.968;2024-03-23T14:16:43;8.20;99.90
56725;DHT22;42608;52.776;6.968;2024-03-23T14:19:08;8.40;99.90
56725;DHT22;42608;52.776;6.968;2024-03-23T14:21:34;8.40;99.90
56725;DHT22;42608;52.776;6.968;2024-03-23T14:24:03;8.40;99.90
56725;DHT22;42608;52.776;6.968;2024-03-23T14:26:29;8.20;99.90
56725;DHT22;42608;52.776;6.968;2024-03-23T14:28:55;8.00;99.90
56725;DHT22;42608;52.776;6.968;2024-03-23T14:31:23;8.00;99.90
56725;DHT22;42608;52.776;6.968;2024-03-23T14:33:51;8.00;99.90
56725;DHT22;42608;52.776;6.968;2024-03-23T14:36:16;8.10;99.90
56725;DHT22;42608;52.776;6.968;2024-03-23T14:38:48;8.20;99.90
56725;DHT22;42608;52.776;6.968;2024-03-23T14:41:17;8.40;99.90
56725;DHT22;42608;52.776;6.968;2024-03-23T14:43:42;8.40;99.90
56725;DHT22;42608;52.776;6.968;2024-03-23T14:46:14;8.60;99.90
56725;DHT22;42608;52.776;6.968;2024-03-23T14:48:43;8.60;99.90
56725;DHT22;42608;52.776;6.968;2024-03-23T14:51:10;8.50;99.90
56725;DHT22;42608;52.776;6.968;2024-03-23T14:53:39;8.40;99.90
56725;DHT22;42608;52.776;6.968;2024-03-23T14:56:06;8.30;99.90
56725;DHT22;42608;52.776;6.968;2024-03-23T14:58:35;8.10;99.90
56725;DHT22;42608;52.776;6.968;2024-03-23T15:01:04;7.90;99.90
56725;DHT22;42608;52.776;6.968;2024-03-23T15:03:29;7.70;99.90
56725;DHT22;42608;52.776;6.968;2024-03-23T15:05:55;7.60;99.90
56725;DHT22;42608;52.776;6.968;2024-03-23T15:08:21;7.50;99.90
56725;DHT22;42608;52.776;6.968;2024-03-23T15:10:47;7.50;99.90
56725;DHT22;42608;52.776;6.968;2024-03-23T15:13:12;7.70;99.90
56725;DHT22;42608;52.776;6.968;2024-03-23T15:15:43;7.90;99.90
56725;DHT22;42608;52.776;6.968;2024-03-23T15:18:10;8.00;99.90
56725;DHT22;42608;52.776;6.968;2024-03-23T15:20:35;8.20;99.90
56725;DHT22;42608;52.776;6.968;2024-03-23T15:23:04;8.10;99.90
56725;DHT22;42608;52.776;6.968;2024-03-23T15:25:29;8.10;99.90
56725;DHT22;42608;52.776;6.968;2024-03-23T15:27:56;8.00;99.90
56725;DHT22;42608;52.776;6.968;2024-03-23T15:30:23;7.90;99.90
56725;DHT22;42608;52.776;6.968;2024-03-23T15:32:48;7.90;99.90
56725;DHT22;42608;52.776;6.968;2024-03-23T15:35:14;7.90;99.90
56725;DHT22;42608;52.776;6.968;2024-03-23T15:37:39;8.00;99.90
56725;DHT22;42608;52.776;6.968;2024-03-23T15:40:06;8.10;99.90
56725;DHT22;42608;52.776;6.968;2024-03-23T15:42:32;8.10;99.90
56725;DHT22;42608;52.776;6.968;2024-03-23T15:44:59;8.20;99.90
56725;DHT22;42608;52.776;6.968;2024-03-23T15:47:24;8.30;99.90
56725;DHT22;42608;52.776;6.968;2024-03-23T15:49:50;8.30;99.90
56725;DHT22;42608;52.776;6.968;2024-03-23T15:52:19;8.20;99.90
56725;DHT22;42608;52.776;6.968;2024-03-23T15:54:44;8.20;99.90
56725;DHT22;42608;52.776;6.968;2024-03-23T15:57:10;8.20;99.90
56725;DHT22;42608;52.776;6.968;2024-03-23T15:59:35;8.20;99.90
56725;DHT22;42608;52.776;6.968;2024-03-23T16:02:01;8.20;99.90
56725;DHT22;42608;52.776;6.968;2024-03-23T16:04:28;8.10;99.90
56725;DHT22;42608;52.776;6.968;2024-03-23T16:06:56;8.10;99.90
56725;DHT22;42608;52.776;6.968;2024-03-23T16:09:23;8.00;99.90
56725;DHT22;42608;52.776;6.968;2024-03-23T16:11:48;8.00;99.90
56725;DHT22;42608;52.776;6.968;2024-03-23T16:14:14;8.00;99.90
56725;DHT22;42608;52.776;6.968;2024-03-23T16:16:39;7.90;99.90
56725;DHT22;42608;52.776;6.968;2024-03-23T16:19:05;7.90;99.90
56725;DHT22;42608;52.776;6.968;2024-03-23T16:21:30;7.80;99.90
56725;DHT22;42608;52.776;6.968;2024-03-23T16:23:56;7.70;99.90
56725;DHT22;42608;52.776;6.968;2024-03-23T16:26:23;7.50;99.90
56725;DHT22;42608;52.776;6.968;2024-03-23T16:28:49;7.50;99.90
56725;DHT22;42608;52.776;6.968;2024-03-23T16:31:16;7.30;99.90
56725;DHT22;42608;52.776;6.968;2024-03-23T16:33:42;7.10;99.90
56725;DHT22;42608;52.776;6.968;2024-03-23T16:36:08;7.00;99.90
56725;DHT22;42608;52.776;6.968;2024-03-23T16:38:35;6.90;99.90
56725;DHT22;42608;52.776;6.968;2024-03-23T16:43:27;6.90;99.90
56725;DHT22;42608;52.776;6.968;2024-03-23T16:45:53;6.80;99.90
56725;DHT22;42608;52.776;6.968;2024-03-23T16:48:23;6.80;99.90